sensor_id;sensor_type;location;lat;lon;timestamp;pressure;altitude;pressure_sealevel;temperature;humidity
9740;BME280;4909;42.680;26.324;2022-11-20T00:01:10;98241.59;;;17.31;100.00
9740;BME280;4909;42.680;26.324;2022-11-20T00:03:37;98250.22;;;17.24;100.00
9740;BME280;4909;42.680;26.324;2022-11-20T00:06:07;98251.25;;;17.45;100.00
9740;BME280;4909;42.680;26.324;2022-11-20T00:08:34;98244.06;;;17.46;100.00
9740;BME280;4909;42.680;26.324;2022-11-20T00:11:05;98248.69;;;17.32;100.00
9740;BME280;4909;42.680;26.324;2022-11-20T00:13:32;98253.91;;;17.34;100.00
9740;BME280;4909;42.680;26.324;2022-11-20T00:16:01;98248.44;;;17.35;100.00
9740;BME280;4909;42.680;26.324;2022-11-20T00:18:28;98253.81;;;17.47;100.00
9740;BME280;4909;42.680;26.324;2022-11-20T00:21:00;98250.16;;;17.36;100.00
9740;BME280;4909;42.680;26.324;2022-11-20T00:23:29;98246.38;;;17.50;100.00
9740;BME280;4909;42.680;26.324;2022-11-20T00:25:55;98256.16;;;17.51;100.00
9740;BME280;4909;42.680;26.324;2022-11-20T00:28:22;98244.19;;;17.55;100.00
9740;BME280;4909;42.680;26.324;2022-11-20T00:30:49;98250.56;;;17.65;100.00
9740;BME280;4909;42.680;26.324;2022-11-20T00:33:16;98259.81;;;17.72;100.00
9740;BME280;4909;42.680;26.324;2022-11-20T00:35:42;98236.97;;;17.45;100.00
9740;BME280;4909;42.680;26.324;2022-11-20T00:38:09;98247.97;;;17.42;100.00
9740;BME280;4909;42.680;26.324;2022-11-20T00:40:37;98246.75;;;17.46;100.00
9740;BME280;4909;42.680;26.324;2022-11-20T00:43:04;98249.81;;;17.52;100.00
9740;BME280;4909;42.680;26.324;2022-11-20T00:45:30;98240.03;;;17.40;100.00
9740;BME280;4909;42.680;26.324;2022-11-20T00:47:57;98244.66;;;17.49;100.00
9740;BME280;4909;42.680;26.324;2022-11-20T00:50:24;98243.66;;;17.39;100.00
9740;BME280;4909;42.680;26.324;2022-11-20T00:52:51;98242.72;;;17.40;100.00
9740;BME280;4909;42.680;26.324;2022-11-20T00:55:17;98238.19;;;17.18;100.00
9740;BME280;4909;42.680;26.324;2022-11-20T00:57:45;98239.28;;;17.27;100.00
9740;BME280;4909;42.680;26.324;2022-11-20T01:02:39;98246.50;;;17.49;100.00
9740;BME280;4909;42.680;26.324;2022-11-20T01:05:06;98231.59;;;17.33;100.00
9740;BME280;4909;42.680;26.324;2022-11-20T01:07:33;98223.06;;;17.17;100.00
9740;BME280;4909;42.680;26.324;2022-11-20T01:10:00;98229.59;;;17.02;100.00
9740;BME280;4909;42.680;26.324;2022-11-20T01:12:27;98222.63;;;16.88;100.00
9740;BME280;4909;42.680;26.324;2022-11-20T01:14:55;98229.34;;;17.05;100.00
9740;BME280;4909;42.680;26.324;2022-11-20T01:17:21;98232.16;;;17.15;100.00
9740;BME280;4909;42.680;26.324;2022-11-20T01:19:49;98225.31;;;17.00;100.00
9740;BME280;4909;42.680;26.324;2022-11-20T01:22:16;98231.19;;;17.16;100.00
9740;BME280;4909;42.680;26.324;2022-11-20T01:24:42;98231.47;;;17.35;100.00
9740;BME280;4909;42.680;26.324;2022-11-20T01:27:09;98226.25;;;17.45;100.00
9740;BME280;4909;42.680;26.324;2022-11-20T01:29:36;98240.75;;;17.53;100.00
9740;BME280;4909;42.680;26.324;2022-11-20T01:32:05;98241.97;;;17.49;100.00
9740;BME280;4909;42.680;26.324;2022-11-20T01:34:31;98243.34;;;17.55;100.00
9740;BME280;4909;42.680;26.324;2022-11-20T01:36:58;98245.34;;;17.29;100.00
9740;BME280;4909;42.680;26.324;2022-11-20T01:39:26;98237.69;;;17.13;100.00
9740;BME280;4909;42.680;26.324;2022-11-20T01:41:55;98235.13;;;17.23;100.00
9740;BME280;4909;42.680;26.324;2022-11-20T01:44:48;98233.06;;;17.26;100.00
9740;BME280;4909;42.680;26.324;2022-11-20T01:47:20;98236.25;;;17.43;100.00
9740;BME280;4909;42.680;26.324;2022-11-20T01:49:51;98229.88;;;17.21;100.00
9740;BME280;4909;42.680;26.324;2022-11-20T01:52:20;98239.88;;;17.30;100.00
9740;BME280;4909;42.680;26.324;2022-11-20T01:54:53;98226.22;;;17.22;100.00
9740;BME280;4909;42.680;26.324;2022-11-20T01:57:23;98231.97;;;17.40;100.00
9740;BME280;4909;42.680;26.324;2022-11-20T01:59:55;98224.53;;;17.44;100.00
9740;BME280;4909;42.680;26.324;2022-11-20T02:02:23;98221.28;;;17.62;100.00
9740;BME280;4909;42.680;26.324;2022-11-20T02:04:51;98210.53;;;17.51;100.00
9740;BME280;4909;42.680;26.324;2022-11-20T02:07:21;98242.63;;;17.75;100.00
9740;BME280;4909;42.680;26.324;2022-11-20T02:09:49;98196.59;;;17.57;100.00
9740;BME280;4909;42.680;26.324;2022-11-20T02:12:16;98194.66;;;17.48;100.00
9740;BME280;4909;42.680;26.324;2022-11-20T02:14:56;98224.44;;;17.78;100.00
9740;BME280;4909;42.680;26.324;2022-11-20T02:17:25;98182.34;;;17.68;100.00
9740;BME280;4909;42.680;26.324;2022-11-20T02:19:52;98198.84;;;17.86;100.00
9740;BME280;4909;42.680;26.324;2022-11-20T02:22:22;98221.63;;;18.02;100.00
9740;BME280;4909;42.680;26.324;2022-11-20T02:24:56;98221.13;;;17.97;100.00
9740;BME280;4909;42.680;26.324;2022-11-20T02:27:26;98214.19;;;17.95;100.00
9740;BME280;4909;42.680;26.324;2022-11-20T02:29:56;98222.09;;;17.96;100.00
9740;BME280;4909;42.680;26.324;2022-11-20T02:32:26;98210.97;;;18.12;100.00
9740;BME280;4909;42.680;26.324;2022-11-20T02:34:53;98207.78;;;18.29;100.00
9740;BME280;4909;42.680;26.324;2022-11-20T02:37:21;98188.13;;;18.17;100.00
9740;BME280;4909;42.680;26.324;2022-11-20T02:39:50;98192.50;;;18.30;100.00
9740;BME280;4909;42.680;26.324;2022-11-20T02:42:19;98178.50;;;18.15;100.00
9740;BME280;4909;42.680;26.324;2022-11-20T02:44:45;98194.94;;;18.33;100.00
9740;BME280;4909;42.680;26.324;2022-11-20T02:47:12;98186.53;;;18.26;100.00
9740;BME280;4909;42.680;26.324;2022-11-20T02:49:39;98193.97;;;18.22;100.00
9740;BME280;4909;42.680;26.324;2022-11-20T02:52:05;98189.72;;;18.20;100.00
9740;BME280;4909;42.680;26.324;2022-11-20T02:54:33;98202.41;;;18.29;100.00
9740;BME280;4909;42.680;26.324;2022-11-20T02:56:59;98185.56;;;18.16;100.00
9740;BME280;4909;42.680;26.324;2022-11-20T02:59:28;98205.47;;;18.24;100.00
9740;BME280;4909;42.680;26.324;2022-11-20T03:01:54;98208.56;;;18.41;100.00
9740;BME280;4909;42.680;26.324;2022-11-20T03:04:21;98197.97;;;18.39;100.00
9740;BME280;4909;42.680;26.324;2022-11-20T03:06:48;98196.19;;;18.49;100.00
9740;BME280;4909;42.680;26.324;2022-11-20T03:09:14;98188.41;;;18.46;100.00
9740;BME280;4909;42.680;26.324;2022-11-20T03:11:41;98189.00;;;18.50;100.00
9740;BME280;4909;42.680;26.324;2022-11-20T03:14:08;98194.75;;;18.56;100.00
9740;BME280;4909;42.680;26.324;2022-11-20T03:16:36;98201.84;;;18.57;100.00
9740;BME280;4909;42.680;26.324;2022-11-20T03:19:03;98206.63;;;18.54;100.00
9740;BME280;4909;42.680;26.324;2022-11-20T03:21:30;98208.66;;;18.61;100.00
9740;BME280;4909;42.680;26.324;2022-11-20T03:23:56;98206.94;;;18.60;100.00
9740;BME280;4909;42.680;26.324;2022-11-20T03:26:24;98209.53;;;18.51;100.00
9740;BME280;4909;42.680;26.324;2022-11-20T03:28:54;98163.19;;;18.27;100.00
9740;BME280;4909;42.680;26.324;2022-11-20T03:31:22;98197.44;;;18.45;100.00
9740;BME280;4909;42.680;26.324;2022-11-20T03:33:51;98195.22;;;18.50;100.00
9740;BME280;4909;42.680;26.324;2022-11-20T03:36:19;98191.41;;;18.64;100.00
9740;BME280;4909;42.680;26.324;2022-11-20T03:38:47;98187.91;;;18.52;100.00
9740;BME280;4909;42.680;26.324;2022-11-20T03:41:17;98195.97;;;18.63;100.00
9740;BME280;4909;42.680;26.324;2022-11-20T03:43:47;98185.22;;;18.63;100.00
9740;BME280;4909;42.680;26.324;2022-11-20T03:46:14;98180.03;;;18.72;100.00
9740;BME280;4909;42.680;26.324;2022-11-20T03:48:41;98187.34;;;18.70;100.00
9740;BME280;4909;42.680;26.324;2022-11-20T03:51:14;98183.03;;;18.57;100.00
9740;BME280;4909;42.680;26.324;2022-11-20T03:53:42;98188.34;;;18.69;100.00
9740;BME280;4909;42.680;26.324;2022-11-20T03:56:10;98180.06;;;18.60;100.00
9740;BME280;4909;42.680;26.324;2022-11-20T03:58:38;98180.59;;;18.75;100.00
9740;BME280;4909;42.680;26.324;2022-11-20T04:01:07;98176.13;;;18.64;100.00
9740;BME280;4909;42.680;26.324;2022-11-20T04:03:34;98167.88;;;18.56;100.00
9740;BME280;4909;42.680;26.324;2022-11-20T04:06:02;98169.47;;;18.48;100.00
9740;BME280;4909;42.680;26.324;2022-11-20T04:08:31;98160.28;;;18.61;100.00
9740;BME280;4909;42.680;26.324;2022-11-20T04:11:08;98156.16;;;18.57;100.00
9740;BME280;4909;42.680;26.324;2022-11-20T04:13:35;98161.91;;;18.74;100.00
9740;BME280;4909;42.680;26.324;2022-11-20T04:16:02;98148.22;;;18.77;100.00
9740;BME280;4909;42.680;26.324;2022-11-20T04:18:28;98154.53;;;18.87;100.00
9740;BME280;4909;42.680;26.324;2022-11-20T04:20:56;98162.25;;;18.80;100.00
9740;BME280;4909;42.680;26.324;2022-11-20T04:23:23;98162.91;;;18.93;100.00
9740;BME280;4909;42.680;26.324;2022-11-20T04:25:51;98162.25;;;19.01;100.00
9740;BME280;4909;42.680;26.324;2022-11-20T04:28:18;98171.91;;;18.83;100.00
9740;BME280;4909;42.680;26.324;2022-11-20T04:30:45;98170.72;;;18.76;100.00
9740;BME280;4909;42.680;26.324;2022-11-20T04:33:11;98163.09;;;18.60;100.00
9740;BME280;4909;42.680;26.324;2022-11-20T04:35:38;98162.66;;;18.44;100.00
9740;BME280;4909;42.680;26.324;2022-11-20T04:38:05;98169.25;;;18.40;100.00
9740;BME280;4909;42.680;26.324;2022-11-20T04:40:31;98168.19;;;18.31;100.00
9740;BME280;4909;42.680;26.324;2022-11-20T04:43:00;98169.91;;;18.32;100.00
9740;BME280;4909;42.680;26.324;2022-11-20T04:45:26;98173.59;;;18.52;100.00
9740;BME280;4909;42.680;26.324;2022-11-20T04:47:53;98176.75;;;18.68;100.00
9740;BME280;4909;42.680;26.324;2022-11-20T04:50:20;98179.03;;;18.73;100.00
9740;BME280;4909;42.680;26.324;2022-11-20T04:52:47;98184.28;;;18.53;100.00
9740;BME280;4909;42.680;26.324;2022-11-20T04:55:13;98180.94;;;18.50;100.00
9740;BME280;4909;42.680;26.324;2022-11-20T04:57:40;98175.09;;;18.45;100.00
9740;BME280;4909;42.680;26.324;2022-11-20T05:00:10;98177.38;;;18.49;100.00
9740;BME280;4909;42.680;26.324;2022-11-20T05:02:36;98186.88;;;18.64;100.00
9740;BME280;4909;42.680;26.324;2022-11-20T05:05:04;98202.13;;;18.75;100.00
9740;BME280;4909;42.680;26.324;2022-11-20T05:07:30;98207.38;;;18.77;100.00
9740;BME280;4909;42.680;26.324;2022-11-20T05:09:57;98199.91;;;18.80;100.00
9740;BME280;4909;42.680;26.324;2022-11-20T05:12:24;98194.72;;;18.67;100.00
9740;BME280;4909;42.680;26.324;2022-11-20T05:14:51;98195.88;;;18.75;100.00
9740;BME280;4909;42.680;26.324;2022-11-20T05:17:19;98194.25;;;18.62;100.00
9740;BME280;4909;42.680;26.324;2022-11-20T05:19:45;98209.13;;;18.66;100.00
9740;BME280;4909;42.680;26.324;2022-11-20T05:22:12;98214.88;;;18.62;100.00
9740;BME280;4909;42.680;26.324;2022-11-20T05:24:39;98204.53;;;18.46;100.00
9740;BME280;4909;42.680;26.324;2022-11-20T05:27:06;98215.97;;;18.59;100.00
9740;BME280;4909;42.680;26.324;2022-11-20T05:29:32;98199.44;;;18.32;100.00
9740;BME280;4909;42.680;26.324;2022-11-20T05:31:59;98214.88;;;18.51;100.00
9740;BME280;4909;42.680;26.324;2022-11-20T05:34:27;98194.47;;;18.28;100.00
9740;BME280;4909;42.680;26.324;2022-11-20T05:36:54;98211.94;;;18.22;100.00
9740;BME280;4909;42.680;26.324;2022-11-20T05:39:21;98217.50;;;18.41;100.00
9740;BME280;4909;42.680;26.324;2022-11-20T05:41:47;98222.88;;;18.41;100.00
9740;BME280;4909;42.680;26.324;2022-11-20T05:44:34;98214.63;;;18.22;100.00
9740;BME280;4909;42.680;26.324;2022-11-20T05:47:01;98213.44;;;18.15;100.00
9740;BME280;4909;42.680;26.324;2022-11-20T05:49:29;98213.66;;;18.23;100.00
9740;BME280;4909;42.680;26.324;2022-11-20T05:51:56;98211.25;;;18.09;100.00
9740;BME280;4909;42.680;26.324;2022-11-20T05:54:23;98224.66;;;17.98;100.00
9740;BME280;4909;42.680;26.324;2022-11-20T05:56:49;98221.75;;;18.01;100.00
9740;BME280;4909;42.680;26.324;2022-11-20T05:59:16;98237.13;;;18.10;100.00
9740;BME280;4909;42.680;26.324;2022-11-20T06:01:43;98231.09;;;18.17;100.00
9740;BME280;4909;42.680;26.324;2022-11-20T06:04:10;98222.47;;;18.03;100.00
9740;BME280;4909;42.680;26.324;2022-11-20T06:06:38;98244.19;;;18.11;100.00
9740;BME280;4909;42.680;26.324;2022-11-20T06:09:05;98252.00;;;18.14;100.00
9740;BME280;4909;42.680;26.324;2022-11-20T06:11:31;98234.94;;;18.04;100.00
9740;BME280;4909;42.680;26.324;2022-11-20T06:13:58;98259.44;;;18.21;100.00
9740;BME280;4909;42.680;26.324;2022-11-20T06:16:25;98244.25;;;18.32;100.00
9740;BME280;4909;42.680;26.324;2022-11-20T06:18:51;98246.94;;;18.43;100.00
9740;BME280;4909;42.680;26.324;2022-11-20T06:21:21;98254.34;;;18.50;100.00
9740;BME280;4909;42.680;26.324;2022-11-20T06:23:50;98240.06;;;18.50;100.00
9740;BME280;4909;42.680;26.324;2022-11-20T06:26:20;98261.25;;;18.75;100.00
9740;BME280;4909;42.680;26.324;2022-11-20T06:28:47;98227.97;;;18.55;100.00
9740;BME280;4909;42.680;26.324;2022-11-20T06:31:16;98244.16;;;18.76;100.00
9740;BME280;4909;42.680;26.324;2022-11-20T06:33:43;98243.81;;;18.70;100.00
9740;BME280;4909;42.680;26.324;2022-11-20T06:36:12;98257.69;;;18.86;100.00
9740;BME280;4909;42.680;26.324;2022-11-20T06:38:39;98260.97;;;18.89;100.00
9740;BME280;4909;42.680;26.324;2022-11-20T06:41:10;98247.66;;;18.88;100.00
9740;BME280;4909;42.680;26.324;2022-11-20T06:43:37;98243.88;;;18.79;100.00
9740;BME280;4909;42.680;26.324;2022-11-20T06:46:04;98226.16;;;18.56;100.00
9740;BME280;4909;42.680;26.324;2022-11-20T06:48:31;98248.41;;;18.79;100.00
9740;BME280;4909;42.680;26.324;2022-11-20T06:50:58;98258.53;;;18.86;100.00
9740;BME280;4909;42.680;26.324;2022-11-20T06:53:25;98253.41;;;18.83;100.00
9740;BME280;4909;42.680;26.324;2022-11-20T06:55:52;98259.72;;;18.93;100.00
9740;BME280;4909;42.680;26.324;2022-11-20T06:58:25;98248.75;;;18.85;100.00
9740;BME280;4909;42.680;26.324;2022-11-20T07:00:52;98264.34;;;18.71;100.00
9740;BME280;4909;42.680;26.324;2022-11-20T07:03:19;98272.38;;;18.82;100.00
9740;BME280;4909;42.680;26.324;2022-11-20T07:05:46;98269.09;;;18.78;100.00
9740;BME280;4909;42.680;26.324;2022-11-20T07:08:13;98258.66;;;18.85;100.00
9740;BME280;4909;42.680;26.324;2022-11-20T07:10:39;98270.53;;;19.03;100.00
9740;BME280;4909;42.680;26.324;2022-11-20T07:13:06;98267.84;;;18.82;100.00
9740;BME280;4909;42.680;26.324;2022-11-20T07:15:34;98270.00;;;18.88;100.00
9740;BME280;4909;42.680;26.324;2022-11-20T07:18:01;98282.31;;;19.02;100.00
9740;BME280;4909;42.680;26.324;2022-11-20T07:20:28;98289.22;;;19.16;100.00
9740;BME280;4909;42.680;26.324;2022-11-20T07:22:55;98270.53;;;18.82;100.00
9740;BME280;4909;42.680;26.324;2022-11-20T07:25:22;98281.97;;;18.95;100.00
9740;BME280;4909;42.680;26.324;2022-11-20T07:27:49;98274.56;;;18.88;100.00
9740;BME280;4909;42.680;26.324;2022-11-20T07:30:17;98270.06;;;18.77;100.00
9740;BME280;4909;42.680;26.324;2022-11-20T07:32:47;98286.97;;;19.00;100.00
9740;BME280;4909;42.680;26.324;2022-11-20T07:35:14;98279.94;;;18.88;100.00
9740;BME280;4909;42.680;26.324;2022-11-20T07:37:41;98281.63;;;18.89;100.00
9740;BME280;4909;42.680;26.324;2022-11-20T07:40:08;98284.16;;;19.01;100.00
9740;BME280;4909;42.680;26.324;2022-11-20T07:42:35;98278.22;;;19.07;100.00
9740;BME280;4909;42.680;26.324;2022-11-20T07:45:02;98268.66;;;19.15;100.00
9740;BME280;4909;42.680;26.324;2022-11-20T07:47:35;98264.47;;;19.01;100.00
9740;BME280;4909;42.680;26.324;2022-11-20T07:50:04;98270.06;;;19.30;100.00
9740;BME280;4909;42.680;26.324;2022-11-20T07:52:32;98266.59;;;19.60;100.00
9740;BME280;4909;42.680;26.324;2022-11-20T07:54:59;98267.78;;;20.07;100.00
9740;BME280;4909;42.680;26.324;2022-11-20T07:57:26;98268.38;;;20.50;97.16
9740;BME280;4909;42.680;26.324;2022-11-20T07:59:53;98266.44;;;20.81;95.23
9740;BME280;4909;42.680;26.324;2022-11-20T08:02:19;98266.25;;;20.92;93.93
9740;BME280;4909;42.680;26.324;2022-11-20T08:04:46;98261.16;;;21.08;93.09
9740;BME280;4909;42.680;26.324;2022-11-20T08:07:15;98261.88;;;21.10;91.64
9740;BME280;4909;42.680;26.324;2022-11-20T08:09:41;98255.22;;;20.86;92.13
9740;BME280;4909;42.680;26.324;2022-11-20T08:12:09;98257.19;;;20.93;92.17
9740;BME280;4909;42.680;26.324;2022-11-20T08:15:00;98252.22;;;20.69;93.53
9740;BME280;4909;42.680;26.324;2022-11-20T08:17:27;98260.19;;;21.00;93.14
9740;BME280;4909;42.680;26.324;2022-11-20T08:19:53;98237.03;;;21.16;92.15
9740;BME280;4909;42.680;26.324;2022-11-20T08:22:21;98254.44;;;21.51;90.48
9740;BME280;4909;42.680;26.324;2022-11-20T08:24:48;98254.28;;;21.62;90.15
9740;BME280;4909;42.680;26.324;2022-11-20T08:27:15;98255.25;;;21.71;88.86
9740;BME280;4909;42.680;26.324;2022-11-20T08:29:42;98256.09;;;21.71;88.50
9740;BME280;4909;42.680;26.324;2022-11-20T08:32:08;98260.78;;;21.69;89.22
9740;BME280;4909;42.680;26.324;2022-11-20T08:34:35;98257.50;;;21.75;88.79
9740;BME280;4909;42.680;26.324;2022-11-20T08:37:02;98259.63;;;21.81;88.57
9740;BME280;4909;42.680;26.324;2022-11-20T08:39:30;98265.03;;;21.81;87.89
9740;BME280;4909;42.680;26.324;2022-11-20T08:41:57;98249.91;;;21.51;89.48
9740;BME280;4909;42.680;26.324;2022-11-20T08:44:24;98262.97;;;21.56;89.15
9740;BME280;4909;42.680;26.324;2022-11-20T08:46:50;98262.53;;;21.60;89.31
9740;BME280;4909;42.680;26.324;2022-11-20T08:49:17;98264.06;;;21.73;89.06
9740;BME280;4909;42.680;26.324;2022-11-20T08:51:44;98263.03;;;21.83;88.80
9740;BME280;4909;42.680;26.324;2022-11-20T08:54:13;98250.34;;;21.93;88.09
9740;BME280;4909;42.680;26.324;2022-11-20T08:56:41;98255.16;;;21.99;87.68
9740;BME280;4909;42.680;26.324;2022-11-20T08:59:08;98252.47;;;21.90;87.92
9740;BME280;4909;42.680;26.324;2022-11-20T09:01:35;98249.94;;;21.42;87.94
9740;BME280;4909;42.680;26.324;2022-11-20T09:04:02;98248.81;;;21.35;89.77
9740;BME280;4909;42.680;26.324;2022-11-20T09:06:30;98253.06;;;21.28;89.63
9740;BME280;4909;42.680;26.324;2022-11-20T09:08:56;98238.00;;;20.77;91.41
9740;BME280;4909;42.680;26.324;2022-11-20T09:11:23;98232.34;;;20.61;94.58
9740;BME280;4909;42.680;26.324;2022-11-20T09:13:51;98232.47;;;20.78;92.94
9740;BME280;4909;42.680;26.324;2022-11-20T09:16:18;98227.09;;;20.78;93.92
9740;BME280;4909;42.680;26.324;2022-11-20T09:18:45;98220.84;;;20.78;93.85
9740;BME280;4909;42.680;26.324;2022-11-20T09:21:13;98210.66;;;20.72;94.40
9740;BME280;4909;42.680;26.324;2022-11-20T09:23:40;98196.88;;;20.06;96.24
9740;BME280;4909;42.680;26.324;2022-11-20T09:26:09;98193.63;;;20.03;97.87
9740;BME280;4909;42.680;26.324;2022-11-20T09:28:36;98185.78;;;20.49;97.24
9740;BME280;4909;42.680;26.324;2022-11-20T09:31:06;98177.56;;;20.70;95.10
9740;BME280;4909;42.680;26.324;2022-11-20T09:33:33;98175.84;;;20.69;93.53
9740;BME280;4909;42.680;26.324;2022-11-20T09:36:01;98184.78;;;20.60;95.00
9740;BME280;4909;42.680;26.324;2022-11-20T09:38:28;98182.09;;;20.69;95.21
9740;BME280;4909;42.680;26.324;2022-11-20T09:40:57;98171.59;;;20.86;94.61
9740;BME280;4909;42.680;26.324;2022-11-20T09:43:32;98169.75;;;20.76;93.28
9740;BME280;4909;42.680;26.324;2022-11-20T09:46:15;98170.75;;;20.56;95.23
9740;BME280;4909;42.680;26.324;2022-11-20T09:51:37;98163.34;;;20.77;94.76
9740;BME280;4909;42.680;26.324;2022-11-20T09:54:15;98149.59;;;20.80;92.99
9740;BME280;4909;42.680;26.324;2022-11-20T09:56:45;98165.03;;;20.88;92.78
9740;BME280;4909;42.680;26.324;2022-11-20T09:59:23;98176.69;;;20.89;93.79
9740;BME280;4909;42.680;26.324;2022-11-20T10:01:54;98159.78;;;20.87;93.12
9740;BME280;4909;42.680;26.324;2022-11-20T10:04:22;98146.19;;;20.69;93.81
9740;BME280;4909;42.680;26.324;2022-11-20T10:06:53;98152.13;;;20.63;95.10
9740;BME280;4909;42.680;26.324;2022-11-20T10:09:27;98150.88;;;20.76;93.91
9740;BME280;4909;42.680;26.324;2022-11-20T10:12:09;98154.84;;;20.72;94.88
9740;BME280;4909;42.680;26.324;2022-11-20T10:14:49;98145.91;;;20.72;94.90
9740;BME280;4909;42.680;26.324;2022-11-20T10:17:31;98135.81;;;20.83;94.66
9740;BME280;4909;42.680;26.324;2022-11-20T10:20:12;98144.16;;;21.00;94.05
9740;BME280;4909;42.680;26.324;2022-11-20T10:22:51;98134.34;;;20.99;94.12
9740;BME280;4909;42.680;26.324;2022-11-20T10:25:37;98109.28;;;20.60;94.87
9740;BME280;4909;42.680;26.324;2022-11-20T10:28:22;98137.41;;;20.76;94.80
9740;BME280;4909;42.680;26.324;2022-11-20T10:30:56;98128.72;;;20.63;96.17
9740;BME280;4909;42.680;26.324;2022-11-20T10:33:27;98131.00;;;20.68;95.33
9740;BME280;4909;42.680;26.324;2022-11-20T10:36:05;98125.16;;;20.24;97.05
9740;BME280;4909;42.680;26.324;2022-11-20T10:38:38;98105.47;;;20.33;96.98
9740;BME280;4909;42.680;26.324;2022-11-20T10:41:13;98140.94;;;20.58;96.13
9740;BME280;4909;42.680;26.324;2022-11-20T10:43:56;98141.78;;;20.58;96.10
9740;BME280;4909;42.680;26.324;2022-11-20T10:46:36;98112.84;;;20.41;96.30
9740;BME280;4909;42.680;26.324;2022-11-20T10:49:11;98142.22;;;20.54;94.97
9740;BME280;4909;42.680;26.324;2022-11-20T10:51:49;98152.13;;;20.63;92.47
9740;BME280;4909;42.680;26.324;2022-11-20T10:54:22;98160.66;;;20.68;92.97
9740;BME280;4909;42.680;26.324;2022-11-20T10:56:53;98158.97;;;20.76;90.84
9740;BME280;4909;42.680;26.324;2022-11-20T10:59:33;98147.88;;;20.79;91.26
9740;BME280;4909;42.680;26.324;2022-11-20T11:02:12;98154.69;;;20.74;90.58
9740;BME280;4909;42.680;26.324;2022-11-20T11:04:44;98147.88;;;20.79;91.26
9740;BME280;4909;42.680;26.324;2022-11-20T11:07:15;98146.16;;;20.78;89.52
9740;BME280;4909;42.680;26.324;2022-11-20T11:09:47;98147.88;;;20.79;90.57
9740;BME280;4909;42.680;26.324;2022-11-20T11:12:14;98146.91;;;20.71;89.43
9740;BME280;4909;42.680;26.324;2022-11-20T11:14:43;98137.69;;;20.54;90.22
9740;BME280;4909;42.680;26.324;2022-11-20T11:17:20;98135.13;;;20.43;90.75
9740;BME280;4909;42.680;26.324;2022-11-20T11:20:01;98131.16;;;20.47;90.86
9740;BME280;4909;42.680;26.324;2022-11-20T11:22:30;98129.59;;;20.45;90.39
9740;BME280;4909;42.680;26.324;2022-11-20T11:24:57;98112.56;;;20.44;90.46
9740;BME280;4909;42.680;26.324;2022-11-20T11:27:25;98134.72;;;20.48;90.62
9740;BME280;4909;42.680;26.324;2022-11-20T11:30:02;98132.03;;;20.38;91.27
9740;BME280;4909;42.680;26.324;2022-11-20T11:32:29;98123.50;;;20.52;90.32
9740;BME280;4909;42.680;26.324;2022-11-20T11:35:02;98131.59;;;20.52;90.91
9740;BME280;4909;42.680;26.324;2022-11-20T11:37:33;98125.47;;;20.60;90.90
9740;BME280;4909;42.680;26.324;2022-11-20T11:40:01;98099.94;;;20.45;91.88
9740;BME280;4909;42.680;26.324;2022-11-20T11:42:28;98120.94;;;20.51;91.10
9740;BME280;4909;42.680;26.324;2022-11-20T11:44:57;98107.59;;;20.49;90.88
9740;BME280;4909;42.680;26.324;2022-11-20T11:47:36;98074.53;;;20.57;90.90
9740;BME280;4909;42.680;26.324;2022-11-20T11:50:17;98096.78;;;20.78;90.21
9740;BME280;4909;42.680;26.324;2022-11-20T11:52:48;98075.00;;;20.43;90.50
9740;BME280;4909;42.680;26.324;2022-11-20T11:55:21;98074.28;;;20.41;92.00
9740;BME280;4909;42.680;26.324;2022-11-20T11:57:57;98088.44;;;20.62;91.33
9740;BME280;4909;42.680;26.324;2022-11-20T12:00:26;98078.09;;;20.48;90.38
9740;BME280;4909;42.680;26.324;2022-11-20T12:03:00;98085.47;;;20.55;90.88
9740;BME280;4909;42.680;26.324;2022-11-20T12:05:37;98067.47;;;20.46;91.59
9740;BME280;4909;42.680;26.324;2022-11-20T12:08:12;98076.22;;;20.48;91.80
9740;BME280;4909;42.680;26.324;2022-11-20T12:10:45;98086.44;;;20.54;91.61
9740;BME280;4909;42.680;26.324;2022-11-20T12:13:39;98072.00;;;20.46;90.60
9740;BME280;4909;42.680;26.324;2022-11-20T12:16:11;98063.34;;;20.52;90.64
9740;BME280;4909;42.680;26.324;2022-11-20T12:18:39;98052.56;;;20.42;89.58
9740;BME280;4909;42.680;26.324;2022-11-20T12:21:20;98040.91;;;20.51;89.06
9740;BME280;4909;42.680;26.324;2022-11-20T12:24:24;98067.88;;;20.51;89.74
9740;BME280;4909;42.680;26.324;2022-11-20T12:27:03;98058.38;;;20.57;89.16
9740;BME280;4909;42.680;26.324;2022-11-20T12:29:40;98065.59;;;20.56;89.01
9740;BME280;4909;42.680;26.324;2022-11-20T12:32:33;98056.66;;;20.56;88.51
9740;BME280;4909;42.680;26.324;2022-11-20T12:35:06;98059.78;;;20.61;87.98
9740;BME280;4909;42.680;26.324;2022-11-20T12:37:45;98071.84;;;20.66;88.25
9740;BME280;4909;42.680;26.324;2022-11-20T12:40:25;98063.91;;;20.36;89.07
9740;BME280;4909;42.680;26.324;2022-11-20T12:43:01;98064.06;;;20.34;89.76
9740;BME280;4909;42.680;26.324;2022-11-20T12:46:07;98056.66;;;19.98;92.06
9740;BME280;4909;42.680;26.324;2022-11-20T12:48:56;98057.22;;;19.92;93.43
9740;BME280;4909;42.680;26.324;2022-11-20T12:51:47;98055.06;;;19.86;93.54
9740;BME280;4909;42.680;26.324;2022-11-20T12:54:48;98058.81;;;20.04;92.32
9740;BME280;4909;42.680;26.324;2022-11-20T12:57:24;98057.78;;;20.24;92.50
9740;BME280;4909;42.680;26.324;2022-11-20T13:00:07;98035.97;;;20.08;92.85
9740;BME280;4909;42.680;26.324;2022-11-20T13:02:44;98057.81;;;20.34;92.12
9740;BME280;4909;42.680;26.324;2022-11-20T13:05:20;98024.75;;;20.13;91.74
9740;BME280;4909;42.680;26.324;2022-11-20T13:07:52;98049.03;;;20.42;91.60
9740;BME280;4909;42.680;26.324;2022-11-20T13:10:26;98041.06;;;20.40;90.01
9740;BME280;4909;42.680;26.324;2022-11-20T13:13:03;98049.72;;;20.44;90.42
9740;BME280;4909;42.680;26.324;2022-11-20T13:15:42;98047.44;;;20.49;90.31
9740;BME280;4909;42.680;26.324;2022-11-20T13:18:12;98038.63;;;20.56;88.03
9740;BME280;4909;42.680;26.324;2022-11-20T13:20:44;98040.09;;;20.41;87.51
9740;BME280;4909;42.680;26.324;2022-11-20T13:23:11;97995.69;;;20.16;88.23
9740;BME280;4909;42.680;26.324;2022-11-20T13:25:39;98005.91;;;20.22;86.99